Accueil
METAR-TAF:

METAR-TAF

Aéroports :

Golovin, Alaska, États-Unis

latitude: 64-32-36N, longitude: 163-02-22W, altitude: 8 m

Observation

Le bulletin a été fait il y a 48 minutes, à 01:56 UTC
Vent 8 kt de sud/sud-est
Température 14°C
Humidité 82%
Pression 1001 hPa
Visibilité: 16.1 km
Quelques nuages à une hauteur de 8000 ft

METAR: PAGL 020156Z AUTO 15008KT 10SM FEW080 14/11 A2955 RMK AO2 SLP000 T01390111

Heure: 18:44 (02:44 UTC)


TAF: absent

Observations et prévisions météorologiques de plus de 4000 aéroports (messages METAR et TAF).

Les stations disponibles sont représentées par des disques jaunes et rouges sur la carte.

Passer la souris dessus pour voir le nom de la station.

Cliquer dessus pour voir les observations et prévisions météorologiques.

Pour changer de carte: cliquez sur les boutons verts avec une croix noire pour zoomer, sur le bouton vert avec un tiret pour effectuer un zoom arrière, ou sur les flèches vertes pour les cartes adjacentes.


METAR-TAF: